Time;durP1;ratioP1;P1;durP2;ratioP2;P2;SDS_P1;SDS_P2;PMS_P1;PMS_P2;Temp;Humidity;BMP_temperature;BMP_pressure;BME280_temperature;BME280_humidity;BME280_pressure;Samples;Min_cycle;Max_cycle;Signal;HPM_P1;HPM_P2
2022/08/22 00:08:13;;;;;;;0.10;0.10;;;;;;;21.29;60.08;101718.63;5089407;27;20408;-77
2022/08/22 00:11:20;;;;;;;0.10;0.10;;;;;;;21.28;60.03;101718.72;5093844;28;20043;-75
2022/08/22 00:14:02;;;;;;;0.10;0.10;;;;;;;21.21;60.10;101722.66;5083809;28;20032;-77
2022/08/22 00:16:42;;;;;;;0.10;0.10;;;;;;;21.15;60.28;101721.16;5087472;28;20511;-78
2022/08/22 00:19:40;;;;;;;0.10;0.10;;;;;;;21.15;60.48;101726.56;5087333;28;20036;-77
2022/08/22 00:25:26;;;;;;;0.10;0.10;;;;;;;21.12;60.58;101724.00;5060187;28;20466;-76
2022/08/22 00:28:06;;;;;;;0.10;0.10;;;;;;;21.07;60.51;101728.75;5062048;28;20032;-76
2022/08/22 00:30:45;;;;;;;0.10;0.10;;;;;;;21.00;60.92;101720.97;5061023;28;20032;-74
2022/08/22 00:33:26;;;;;;;0.15;0.15;;;;;;;21.03;61.03;101727.16;5054775;28;20155;-78
2022/08/22 00:36:06;;;;;;;0.10;0.10;;;;;;;21.00;60.83;101731.75;5056258;28;20181;-77
2022/08/22 00:38:41;;;;;;;0.10;0.10;;;;;;;20.96;61.30;101730.16;5063061;28;20032;-75
2022/08/22 00:41:34;;;;;;;0.10;0.10;;;;;;;21.01;61.24;101730.81;5055228;28;20500;-76
2022/08/22 00:44:20;;;;;;;0.10;0.10;;;;;;;20.98;61.25;101736.34;5053126;28;20161;-75
2022/08/22 00:52:52;;;;;;;0.10;0.10;;;;;;;20.98;61.48;101733.63;5070250;27;20781;-76
2022/08/22 00:55:47;;;;;;;0.00;0.00;;;;;;;20.99;61.26;101735.41;5040831;28;20037;-74
2022/08/22 01:01:09;;;;;;;0.40;0.40;;;;;;;20.98;61.15;101722.88;5061526;27;20432;-76
2022/08/22 01:04:05;;;;;;;0.10;0.10;;;;;;;21.10;61.37;101723.22;5046380;28;20057;-76
2022/08/22 01:09:41;;;;;;;0.10;0.10;;;;;;;21.15;60.96;101731.94;5046042;28;20417;-77
2022/08/22 01:17:58;;;;;;;0.10;0.10;;;;;;;21.11;60.91;101733.91;5147681;27;20413;-78
2022/08/22 01:21:04;;;;;;;0.10;0.10;;;;;;;21.11;61.00;101733.91;5144630;27;21084;-78
2022/08/22 01:32:31;;;;;;;0.10;0.10;;;;;;;21.07;60.92;101736.84;5047447;28;20415;-80
2022/08/22 01:48:29;;;;;;;0.10;0.10;;;;;;;20.91;61.07;101729.53;5080712;27;20543;-76
2022/08/22 01:51:20;;;;;;;0.10;0.10;;;;;;;20.91;61.55;101743.00;5082560;28;20116;-76
2022/08/22 01:54:02;;;;;;;0.10;0.10;;;;;;;20.92;61.60;101739.38;5080366;28;20032;-76
2022/08/22 01:56:35;;;;;;;0.10;0.10;;;;;;;20.89;61.42;101738.66;5080440;28;20513;-76
2022/08/22 01:59:10;;;;;;;0.00;0.00;;;;;;;20.90;61.40;101743.94;5080695;28;20469;-77
2022/08/22 02:04:54;;;;;;;0.10;0.10;;;;;;;20.94;61.35;101742.84;5080093;27;20408;-77
2022/08/22 02:07:47;;;;;;;0.10;0.10;;;;;;;20.99;61.53;101729.16;5066695;28;20037;-77
2022/08/22 02:13:32;;;;;;;0.10;0.10;;;;;;;21.01;61.31;101735.34;5063786;28;20441;-77
2022/08/22 02:16:32;;;;;;;0.40;0.40;;;;;;;21.01;61.21;101728.13;5046265;28;20397;-77
2022/08/22 02:24:55;;;;;;;0.10;0.10;;;;;;;21.00;61.08;101738.97;5083730;28;20359;-76
2022/08/22 02:27:49;;;;;;;0.30;0.30;;;;;;;21.00;60.98;101734.44;5060655;28;20045;-76
2022/08/22 02:30:20;;;;;;;0.32;0.32;;;;;;;20.99;60.70;101734.53;5061683;28;20504;-77
2022/08/22 02:33:11;;;;;;;1.08;0.80;;;;;;;21.07;60.51;101732.34;5065409;28;20025;-77
2022/08/22 02:36:01;;;;;;;0.10;0.10;;;;;;;21.03;60.83;101729.88;5066046;28;20051;-77
2022/08/22 02:38:41;;;;;;;0.10;0.10;;;;;;;21.06;61.05;101724.31;5065084;28;20056;-77
2022/08/22 02:41:31;;;;;;;0.10;0.10;;;;;;;21.11;60.85;101722.25;5059598;28;20078;-77
2022/08/22 02:44:11;;;;;;;0.10;0.10;;;;;;;21.06;61.23;101725.19;5063628;28;20510;-77
2022/08/22 02:47:04;;;;;;;0.10;0.10;;;;;;;21.12;61.24;101719.50;5065240;28;20116;-78
2022/08/22 02:52:23;;;;;;;0.10;0.10;;;;;;;21.04;61.33;101715.44;5101755;27;20407;-76
2022/08/22 02:54:59;;;;;;;0.17;0.17;;;;;;;21.05;61.25;101725.25;5090491;28;20048;-76
2022/08/22 02:57:39;;;;;;;0.13;0.13;;;;;;;21.01;61.36;101720.03;5098796;28;20047;-76
2022/08/22 03:05:58;;;;;;;0.17;0.17;;;;;;;21.00;61.15;101712.91;5109399;27;1205356;-77
2022/08/22 03:11:24;;;;;;;0.20;0.20;;;;;;;20.85;61.94;101710.97;5085531;27;1203501;-76
2022/08/22 03:14:21;;;;;;;0.10;0.10;;;;;;;21.09;61.19;101713.41;5117535;28;20122;-77
2022/08/22 03:17:11;;;;;;;0.10;0.10;;;;;;;21.09;61.54;101708.00;5124715;28;20019;-77
2022/08/22 03:22:48;;;;;;;0.20;0.20;;;;;;;21.12;61.25;101702.44;5063690;28;20419;-77
2022/08/22 03:25:29;;;;;;;0.10;0.10;;;;;;;21.06;61.19;101698.25;5067087;28;20028;-77
2022/08/22 03:28:02;;;;;;;0.00;0.00;;;;;;;21.00;61.22;101694.03;5059916;28;20044;-77
2022/08/22 03:47:08;;;;;;;0.85;0.85;;;;;;;20.93;61.20;101675.56;5062840;28;20418;-76
2022/08/22 03:53:15;;;;;;;0.10;0.10;;;;;;;20.81;61.54;101677.03;5107155;27;20395;-76
2022/08/22 03:55:54;;;;;;;0.10;0.10;;;;;;;20.74;61.08;101675.63;5107636;28;20043;-76
2022/08/22 03:58:52;;;;;;;0.10;0.10;;;;;;;20.68;61.31;101682.16;5109469;28;20031;-77
2022/08/22 04:01:45;;;;;;;0.10;0.10;;;;;;;20.61;61.53;101684.28;5105436;28;20597;-77
2022/08/22 04:04:35;;;;;;;0.10;0.10;;;;;;;20.52;61.63;101688.28;5105422;28;20034;-77
2022/08/22 04:13:06;;;;;;;0.10;0.10;;;;;;;20.48;62.04;101685.81;5098796;27;20137;-77
2022/08/22 04:16:02;;;;;;;0.00;0.00;;;;;;;20.44;62.23;101687.78;5087738;28;20047;-77
2022/08/22 04:18:48;;;;;;;0.10;0.10;;;;;;;20.45;62.23;101694.03;5104745;28;20378;-78
2022/08/22 04:24:39;;;;;;;0.05;0.05;;;;;;;20.47;62.12;101684.97;5053172;28;20399;-77
2022/08/22 04:27:32;;;;;;;0.10;0.10;;;;;;;20.43;62.34;101696.81;5049857;28;20037;-77
2022/08/22 04:30:12;;;;;;;0.10;0.10;;;;;;;20.41;62.35;101701.41;5029610;28;20037;-77
2022/08/22 04:33:18;;;;;;;0.10;0.10;;;;;;;20.46;62.10;101703.84;5012558;28;20049;-77
2022/08/22 04:35:56;;;;;;;0.10;0.10;;;;;;;20.41;62.27;101704.09;5029254;28;20033;-77
2022/08/22 04:38:47;;;;;;;0.10;0.10;;;;;;;20.41;62.45;101705.91;5029908;28;20030;-77
2022/08/22 04:41:23;;;;;;;0.10;0.10;;;;;;;20.39;62.45;101702.41;5032704;28;20049;-77
2022/08/22 04:44:00;;;;;;;0.13;0.13;;;;;;;20.41;62.35;101711.28;5031379;28;20658;-77
2022/08/22 04:49:19;;;;;;;0.10;0.10;;;;;;;20.39;62.39;101713.16;5064603;27;20381;-76
2022/08/22 04:51:52;;;;;;;0.10;0.10;;;;;;;20.39;62.38;101710.47;5036765;28;20053;-77
2022/08/22 04:54:52;;;;;;;0.10;0.10;;;;;;;20.42;62.73;101713.88;5049548;28;20039;-76
2022/08/22 05:00:02;;;;;;;0.57;0.57;;;;;;;20.33;62.56;101715.19;5039188;28;20393;-76
2022/08/22 05:02:36;;;;;;;0.75;0.75;;;;;;;20.34;62.77;101722.34;5024360;28;20044;-77
2022/08/22 05:05:23;;;;;;;0.10;0.10;;;;;;;20.35;62.63;101729.47;5021129;28;20033;-76
2022/08/22 05:07:54;;;;;;;0.20;0.20;;;;;;;20.34;62.56;101730.41;5018880;28;20034;-76
2022/08/22 05:10:37;;;;;;;0.08;0.08;;;;;;;20.40;62.28;101726.56;5017771;28;20046;-75
2022/08/22 05:13:09;;;;;;;0.10;0.10;;;;;;;20.37;62.68;101724.00;5010518;28;20034;-75
2022/08/22 05:15:41;;;;;;;0.13;0.13;;;;;;;20.36;62.79;101728.53;5013843;28;20033;-77
2022/08/22 05:18:12;;;;;;;0.10;0.10;;;;;;;20.38;62.82;101724.91;5020341;28;20040;-75
2022/08/22 05:20:44;;;;;;;0.10;0.10;;;;;;;20.40;62.42;101731.06;5020154;28;20041;-74
2022/08/22 05:23:20;;;;;;;0.10;0.10;;;;;;;20.47;62.43;101732.53;5015003;28;20064;-73
2022/08/22 05:25:50;;;;;;;0.10;0.10;;;;;;;20.46;62.50;101731.66;5015966;28;20495;-76
2022/08/22 05:28:33;;;;;;;0.00;0.00;;;;;;;20.52;62.09;101725.09;5017241;28;20026;-77
2022/08/22 05:31:03;;;;;;;0.10;0.10;;;;;;;20.46;62.29;101736.16;5015971;28;20624;-76
2022/08/22 05:33:35;;;;;;;0.30;0.30;;;;;;;20.47;62.42;101736.09;5016241;28;20025;-80
2022/08/22 05:36:10;;;;;;;0.10;0.10;;;;;;;20.50;62.37;101743.16;5019127;28;20021;-80
2022/08/22 05:38:45;;;;;;;1.20;1.20;;;;;;;20.52;62.43;101741.25;5014354;28;20030;-75
2022/08/22 05:41:22;;;;;;;0.10;0.10;;;;;;;20.52;62.53;101741.25;5014213;28;20026;-74
2022/08/22 05:43:49;;;;;;;0.10;0.10;;;;;;;20.49;62.51;101738.72;5023911;28;20032;-74
2022/08/22 05:46:22;;;;;;;0.10;0.10;;;;;;;20.51;62.53;101740.38;5021188;28;20109;-77
2022/08/22 05:48:59;;;;;;;0.10;0.10;;;;;;;20.55;62.57;101746.50;5020846;28;20100;-77
2022/08/22 05:51:36;;;;;;;0.10;0.10;;;;;;;20.54;62.48;101739.38;5018435;28;20121;-76
2022/08/22 05:54:12;;;;;;;0.30;0.30;;;;;;;20.56;62.52;101741.97;5014304;28;20041;-77
2022/08/22 05:56:46;;;;;;;0.10;0.10;;;;;;;20.55;62.25;101746.50;5019521;28;20495;-76
2022/08/22 06:13:04;;;;;;;0.10;0.10;;;;;;;20.50;62.08;101753.94;5002924;27;4289716;-82
2022/08/22 06:18:31;;;;;;;0.10;0.10;;;;;;;20.49;61.96;101750.34;5109377;27;1193638;-80
2022/08/22 06:21:01;;;;;;;0.10;0.10;;;;;;;20.50;61.79;101751.25;5120247;28;20023;-79
2022/08/22 06:23:35;;;;;;;0.10;0.10;;;;;;;20.50;61.88;101752.09;5113502;27;20024;-80
2022/08/22 06:26:04;;;;;;;0.10;0.10;;;;;;;20.50;62.19;101753.94;5108506;28;20031;-81
2022/08/22 06:28:37;;;;;;;0.20;0.20;;;;;;;20.54;61.86;101755.53;5109307;28;20020;-80
2022/08/22 06:31:05;;;;;;;0.10;0.10;;;;;;;20.55;61.95;101757.28;5108825;28;20708;-80
2022/08/22 06:33:37;;;;;;;0.10;0.10;;;;;;;20.59;62.20;101763.38;5108099;28;20043;-80
2022/08/22 06:36:41;;;;;;;0.15;0.15;;;;;;;20.59;61.99;101760.69;5107966;28;20035;-80
2022/08/22 06:39:20;;;;;;;0.10;0.10;;;;;;;20.70;61.57;101758.34;5111091;28;20039;-79
2022/08/22 06:44:33;;;;;;;0.90;0.90;;;;;;;20.65;62.05;101761.25;5062845;28;20376;-79
2022/08/22 06:47:03;;;;;;;0.10;0.10;;;;;;;20.69;61.48;101768.22;5048523;28;20029;-80
2022/08/22 06:49:31;;;;;;;0.10;0.10;;;;;;;20.76;61.71;101763.47;5053054;28;20025;-83
2022/08/22 06:52:02;;;;;;;0.30;0.30;;;;;;;20.81;62.30;101766.81;5046108;28;20038;-83
2022/08/22 06:54:33;;;;;;;0.10;0.10;;;;;;;20.86;61.26;101769.28;5053835;28;20051;-83
2022/08/22 06:57:02;;;;;;;0.13;0.13;;;;;;;20.89;61.84;101762.88;5054628;28;20481;-83
2022/08/22 06:59:32;;;;;;;0.30;0.30;;;;;;;20.95;61.52;101760.75;5055303;28;20119;-83
2022/08/22 07:02:38;;;;;;;0.10;0.10;;;;;;;21.10;61.14;101752.88;5055466;28;20022;-83
2022/08/22 07:05:08;;;;;;;0.15;0.15;;;;;;;21.08;61.60;101755.63;5053219;28;20070;-83
2022/08/22 07:07:36;;;;;;;0.15;0.15;;;;;;;21.12;61.27;101746.44;5055116;28;20039;-83
2022/08/22 07:10:03;;;;;;;0.20;0.20;;;;;;;21.21;61.54;101744.22;5056159;28;20108;-83
2022/08/22 07:12:34;;;;;;;0.10;0.10;;;;;;;21.33;61.27;101739.09;5052671;28;20026;-83
2022/08/22 07:15:11;;;;;;;0.08;0.08;;;;;;;21.47;61.24;101724.91;5053153;28;20021;-83
2022/08/22 07:17:48;;;;;;;0.03;0.03;;;;;;;21.50;61.25;101723.88;5052678;28;20485;-83
2022/08/22 07:20:26;;;;;;;0.63;0.63;;;;;;;21.63;61.14;101722.31;5049393;28;20104;-83
2022/08/22 07:22:57;;;;;;;0.10;0.10;;;;;;;21.67;61.19;101722.13;5049485;28;20021;-83
2022/08/22 07:25:24;;;;;;;0.15;0.15;;;;;;;21.73;60.47;101719.09;5049566;28;20037;-83
2022/08/22 07:30:46;;;;;;;0.20;0.20;;;;;;;21.92;60.56;101719.88;5068835;28;20139;-79
2022/08/22 07:33:42;;;;;;;0.10;0.10;;;;;;;21.96;60.76;101709.78;5021190;28;20059;-81
2022/08/22 07:36:48;;;;;;;0.10;0.10;;;;;;;22.10;60.20;101712.59;5034699;28;20562;-80
2022/08/22 07:42:15;;;;;;;0.30;0.30;;;;;;;22.28;59.71;101715.22;5064401;28;20395;-80
2022/08/22 07:47:27;;;;;;;0.20;0.20;;;;;;;22.38;59.76;101711.09;5127517;27;20413;-81
2022/08/22 07:49:57;;;;;;;0.10;0.10;;;;;;;22.41;59.71;101713.63;5077819;28;20060;-81
2022/08/22 07:52:28;;;;;;;0.10;0.10;;;;;;;22.49;59.36;101713.19;5073743;28;20024;-79
2022/08/22 07:55:19;;;;;;;0.00;0.00;;;;;;;22.61;59.27;101712.47;5081734;28;20052;-77
2022/08/22 07:57:55;;;;;;;0.10;0.10;;;;;;;22.67;59.28;101708.56;5070639;28;20460;-78
2022/08/22 08:00:22;;;;;;;0.88;0.52;;;;;;;22.71;58.97;101711.97;5074884;28;20029;-78
2022/08/22 08:03:00;;;;;;;0.82;0.82;;;;;;;22.82;58.57;101714.91;5058068;28;20033;-77
2022/08/22 08:05:31;;;;;;;0.10;0.10;;;;;;;22.88;58.63;101709.16;5064761;28;20025;-77
2022/08/22 08:07:59;;;;;;;0.08;0.08;;;;;;;22.92;58.15;101704.44;5065116;28;20029;-78
2022/08/22 08:10:31;;;;;;;0.10;0.10;;;;;;;23.03;58.36;101709.19;5070342;28;20020;-75
2022/08/22 08:13:05;;;;;;;0.10;0.10;;;;;;;23.14;58.38;101714.88;5070280;28;20033;-75
2022/08/22 08:15:36;;;;;;;0.30;0.30;;;;;;;23.22;57.78;101703.63;5072831;28;20066;-77
2022/08/22 08:18:07;;;;;;;0.20;0.20;;;;;;;23.31;57.53;101713.00;5070940;28;20683;-78
2022/08/22 08:20:35;;;;;;;0.20;0.20;;;;;;;23.34;57.54;101715.53;5073574;28;20044;-78
2022/08/22 08:23:04;;;;;;;0.10;0.10;;;;;;;23.30;55.84;101709.41;5071421;28;20029;-78
2022/08/22 08:25:36;;;;;;;0.60;0.60;;;;;;;23.49;57.05;101714.59;5074127;28;20017;-78
2022/08/22 08:28:36;;;;;;;0.10;0.10;;;;;;;23.53;56.53;101710.75;5070639;28;20111;-76
2022/08/22 08:30:58;;;;;;;1.50;1.40;;;;;;;23.65;56.52;101708.25;5069284;28;20044;-78
2022/08/22 08:33:28;;;;;;;0.20;0.20;;;;;;;23.72;56.67;101701.50;5070893;28;20063;-78
2022/08/22 08:36:17;;;;;;;0.10;0.10;;;;;;;23.77;56.25;101701.22;5070559;28;20112;-78
2022/08/22 08:38:54;;;;;;;0.10;0.10;;;;;;;23.90;56.09;101697.63;5070401;28;20398;-78
2022/08/22 08:58:36;;;;;;;1.45;0.43;;;;;;;24.69;54.36;101694.47;5071675;28;20383;-78
2022/08/22 09:01:44;;;;;;;0.40;0.35;;;;;;;24.78;53.03;101693.84;5057949;28;20041;-78
2022/08/22 09:04:45;;;;;;;0.10;0.10;;;;;;;24.87;52.29;101690.53;5053240;28;20094;-78
2022/08/22 09:10:30;;;;;;;0.17;0.17;;;;;;;25.09;52.70;101696.34;5084681;28;20396;-78
2022/08/22 09:16:07;;;;;;;3.03;1.50;;;;;;;25.30;52.40;101685.88;5092576;28;20064;-77
2022/08/22 09:19:01;;;;;;;0.10;0.10;;;;;;;25.40;51.46;101684.28;5057459;28;20043;-76
2022/08/22 09:21:51;;;;;;;0.10;0.10;;;;;;;25.48;51.66;101683.75;5071733;28;20424;-77
2022/08/22 09:27:01;;;;;;;3.25;1.15;;;;;;;25.63;50.24;101679.06;5071808;28;20892;-79
2022/08/22 09:35:24;;;;;;;0.40;0.40;;;;;;;26.00;48.10;101669.16;5128697;27;20384;-78
2022/08/22 09:43:17;;;;;;;0.30;0.30;;;;;;;26.28;47.08;101674.44;5154364;27;20382;-78
2022/08/22 09:51:37;;;;;;;0.10;0.10;;;;;;;26.67;46.64;101667.03;5116221;27;1169820;-83
2022/08/22 09:57:10;;;;;;;0.45;0.45;;;;;;;26.72;46.93;101662.13;5127701;27;20688;-77
2022/08/22 10:00:00;;;;;;;0.10;0.10;;;;;;;26.90;45.97;101650.84;5111490;28;20091;-77
2022/08/22 10:05:37;;;;;;;0.10;0.10;;;;;;;27.00;44.87;101653.72;5111626;27;20380;-76
2022/08/22 10:16:39;;;;;;;0.20;0.20;;;;;;;27.27;45.00;101631.66;5131389;27;20398;-78
2022/08/22 10:19:15;;;;;;;0.10;0.10;;;;;;;27.30;44.54;101634.13;5120954;27;20506;-78
2022/08/22 10:24:51;;;;;;;0.10;0.10;;;;;;;27.50;42.66;101635.31;5064918;28;20411;-78
2022/08/22 10:27:33;;;;;;;0.10;0.10;;;;;;;27.54;43.42;101633.22;5036479;28;20029;-78
2022/08/22 10:35:29;;;;;;;0.30;0.30;;;;;;;27.71;43.23;101631.88;5097499;27;20392;-76
2022/08/22 10:38:07;;;;;;;0.10;0.10;;;;;;;27.74;40.83;101632.47;5111008;28;20493;-78
2022/08/22 10:40:45;;;;;;;0.10;0.10;;;;;;;27.83;42.05;101625.44;5108381;28;20057;-78
2022/08/22 10:43:19;;;;;;;0.20;0.20;;;;;;;27.88;43.08;101628.63;5091246;28;20078;-78
2022/08/22 10:45:52;;;;;;;0.10;0.10;;;;;;;27.75;42.31;101623.34;5090952;28;20020;-78
2022/08/22 10:51:03;;;;;;;0.10;0.10;;;;;;;27.86;42.15;101625.16;5071816;28;20383;-77
2022/08/22 10:53:54;;;;;;;0.40;0.40;;;;;;;28.01;41.46;101622.19;5072528;28;20413;-77
2022/08/22 10:56:45;;;;;;;0.10;0.10;;;;;;;28.15;41.91;101621.06;5044561;28;20013;-78
2022/08/22 11:02:29;;;;;;;0.60;0.47;;;;;;;28.27;41.41;101633.69;5111530;27;20396;-78
2022/08/22 11:05:29;;;;;;;0.30;0.30;;;;;;;28.40;41.59;101625.38;5112184;27;20031;-78
2022/08/22 11:08:22;;;;;;;0.10;0.10;;;;;;;28.52;38.85;101626.19;5095200;28;20028;-78
2022/08/22 11:17:02;;;;;;;0.10;0.10;;;;;;;28.83;40.58;101629.06;5167012;27;20152;-78
2022/08/22 11:22:36;;;;;;;0.10;0.10;;;;;;;28.68;41.24;101632.09;5072477;28;20391;-78
2022/08/22 11:25:19;;;;;;;0.10;0.10;;;;;;;28.68;40.25;101621.19;5072992;28;20085;-78
2022/08/22 11:27:59;;;;;;;3.25;0.52;;;;;;;28.73;39.46;101627.09;5072995;28;20031;-78
2022/08/22 11:31:02;;;;;;;0.20;0.20;;;;;;;29.01;39.95;101624.75;5066224;28;20060;-78
2022/08/22 11:39:07;;;;;;;0.40;0.40;;;;;;;29.32;39.12;101613.03;5099048;27;20331;-78
2022/08/22 11:42:02;;;;;;;0.10;0.10;;;;;;;29.35;38.76;101616.38;5113346;28;20489;-78
2022/08/22 11:44:41;;;;;;;0.10;0.10;;;;;;;29.54;37.81;101609.28;5101403;28;20032;-78
2022/08/22 11:47:12;;;;;;;0.10;0.10;;;;;;;29.68;38.24;101614.38;5112645;28;20032;-78
2022/08/22 11:52:25;;;;;;;0.10;0.10;;;;;;;29.91;38.41;101614.22;5112582;27;20371;-78
2022/08/22 11:57:39;;;;;;;0.10;0.10;;;;;;;29.97;38.09;101618.22;5064548;28;20906;-78
2022/08/22 12:05:41;;;;;;;0.28;0.28;;;;;;;30.15;36.86;101611.09;5132263;27;1211129;-78
2022/08/22 12:08:15;;;;;;;0.10;0.10;;;;;;;30.23;36.30;101602.19;5154744;27;20031;-78
2022/08/22 12:11:05;;;;;;;0.15;0.15;;;;;;;30.38;36.52;101596.31;5146163;27;20098;-76
2022/08/22 12:13:50;;;;;;;0.10;0.10;;;;;;;30.38;36.52;101599.94;5133194;28;20071;-77
2022/08/22 12:16:44;;;;;;;0.20;0.20;;;;;;;30.59;37.07;101601.69;5121709;28;20022;-78
2022/08/22 12:19:35;;;;;;;0.10;0.10;;;;;;;30.52;36.65;101595.94;5134162;28;20023;-79
2022/08/22 12:22:41;;;;;;;0.10;0.10;;;;;;;30.63;36.43;101595.78;5133333;27;20582;-78
2022/08/22 12:30:45;;;;;;;0.20;0.20;;;;;;;30.51;34.59;101588.72;5058895;28;20131;-78
2022/08/22 12:36:26;;;;;;;0.10;0.10;;;;;;;30.63;35.19;101582.13;5113623;27;20750;-78
2022/08/22 12:39:18;;;;;;;7.03;0.95;;;;;;;30.71;35.34;101572.31;5107969;28;20043;-76
2022/08/22 12:47:33;;;;;;;0.00;0.00;;;;;;;30.88;34.31;101557.91;5098818;27;20389;-77
2022/08/22 12:50:28;;;;;;;0.10;0.10;;;;;;;30.89;34.46;101559.59;5100215;28;20135;-79
2022/08/22 12:53:24;;;;;;;0.10;0.10;;;;;;;31.03;35.06;101555.56;5091813;28;20028;-78
2022/08/22 12:59:11;;;;;;;0.10;0.10;;;;;;;31.11;34.11;101552.09;5071503;28;20518;-78
2022/08/22 13:01:43;;;;;;;0.20;0.20;;;;;;;31.10;34.96;101544.91;5052617;28;20040;-78
2022/08/22 13:04:17;;;;;;;0.10;0.10;;;;;;;31.17;34.24;101545.16;5052201;28;20048;-79
2022/08/22 13:07:06;;;;;;;0.25;0.20;;;;;;;31.20;34.51;101547.59;5052502;28;20013;-78
2022/08/22 13:09:36;;;;;;;0.10;0.10;;;;;;;31.18;33.15;101547.78;5051801;28;20036;-79
2022/08/22 13:12:30;;;;;;;0.10;0.10;;;;;;;31.25;33.48;101546.13;5051384;28;20025;-77
2022/08/22 13:15:11;;;;;;;0.10;0.10;;;;;;;31.39;33.25;101542.06;5061123;28;20025;-77
2022/08/22 13:17:37;;;;;;;0.10;0.10;;;;;;;31.42;32.79;101544.50;5041186;28;20029;-78
2022/08/22 13:20:10;;;;;;;0.10;0.10;;;;;;;31.50;31.44;101542.88;5051841;28;20398;-77
2022/08/22 13:22:40;;;;;;;0.03;0.03;;;;;;;31.59;28.94;101544.69;5051266;28;20109;-79
2022/08/22 13:25:23;;;;;;;0.50;0.50;;;;;;;31.69;30.42;101539.19;5051890;28;20033;-78
2022/08/22 13:27:53;;;;;;;0.10;0.10;;;;;;;31.75;31.06;101541.31;5043559;28;20116;-76
2022/08/22 13:30:25;;;;;;;0.03;0.03;;;;;;;31.69;31.77;101539.19;5047647;28;20034;-78
2022/08/22 13:32:55;;;;;;;0.10;0.10;;;;;;;31.68;32.74;101540.19;5051714;28;20040;-79
2022/08/22 13:35:30;;;;;;;0.65;0.65;;;;;;;31.77;32.34;101544.78;5048319;28;20040;-79
2022/08/22 13:38:07;;;;;;;0.10;0.10;;;;;;;31.83;32.15;101538.69;5042959;28;20110;-79
2022/08/22 13:40:35;;;;;;;0.10;0.10;;;;;;;31.86;32.28;101524.66;5037478;28;20017;-79
2022/08/22 13:43:09;;;;;;;0.28;0.28;;;;;;;32.01;31.88;101530.47;5051314;28;20043;-79
2022/08/22 13:45:39;;;;;;;0.10;0.10;;;;;;;32.02;31.35;101523.13;5051966;28;20112;-79
2022/08/22 13:48:14;;;;;;;0.10;0.10;;;;;;;32.11;31.26;101516.69;5051453;28;20048;-79
2022/08/22 13:51:05;;;;;;;0.10;0.10;;;;;;;32.32;30.74;101510.09;5051349;28;20029;-78
2022/08/22 13:56:20;;;;;;;0.10;0.10;;;;;;;32.37;29.21;101504.97;5105493;27;20725;-78
2022/08/22 13:58:52;;;;;;;0.10;0.10;;;;;;;32.31;31.86;101511.09;5092500;28;20029;-79
2022/08/22 14:04:21;;;;;;;0.30;0.30;;;;;;;32.39;32.85;101497.47;5125569;27;20891;-79
2022/08/22 14:12:19;;;;;;;0.28;0.28;;;;;;;32.59;30.22;101488.00;5072122;28;20379;-78
2022/08/22 14:14:53;;;;;;;0.28;0.28;;;;;;;32.59;30.97;101493.50;5050839;28;20052;-79
2022/08/22 14:17:28;;;;;;;1.10;0.60;;;;;;;32.69;30.11;101495.28;5073085;28;20120;-79
2022/08/22 14:20:05;;;;;;;0.10;0.10;;;;;;;32.74;28.45;101490.19;5039082;28;20031;-78
2022/08/22 14:22:33;;;;;;;0.38;0.38;;;;;;;32.71;27.76;101485.00;5052106;28;20029;-79
2022/08/22 14:25:06;;;;;;;0.20;0.20;;;;;;;32.69;28.83;101487.91;5041112;28;20025;-79
2022/08/22 14:30:31;;;;;;;0.10;0.10;;;;;;;32.78;28.50;101494.34;5048798;27;3048698;-79
2022/08/22 14:33:19;;;;;;;0.10;0.10;;;;;;;32.98;29.22;101485.91;5133476;27;20277;-79
2022/08/22 14:35:51;;;;;;;0.10;0.10;;;;;;;33.04;28.84;101477.84;5107778;28;20485;-78
2022/08/22 14:38:39;;;;;;;0.10;0.10;;;;;;;33.31;28.77;101486.06;5105524;27;20485;-79
2022/08/22 14:44:10;;;;;;;0.30;0.30;;;;;;;33.42;28.82;101471.19;5066692;27;20919;-78
2022/08/22 14:46:46;;;;;;;0.10;0.10;;;;;;;33.48;29.78;101479.59;5049192;28;20367;-79
2022/08/22 14:49:40;;;;;;;0.20;0.20;;;;;;;33.52;31.40;101471.91;5049438;27;20081;-79
2022/08/22 14:52:10;;;;;;;0.00;0.00;;;;;;;33.43;29.77;101475.66;5048517;28;20029;-79
2022/08/22 14:54:37;;;;;;;0.00;0.00;;;;;;;33.31;30.25;101480.56;5050199;28;20029;-79
2022/08/22 14:57:11;;;;;;;0.63;0.63;;;;;;;33.33;29.78;101478.53;5034716;28;20034;-79
2022/08/22 14:59:52;;;;;;;0.10;0.10;;;;;;;33.39;30.80;101472.38;5038638;28;20051;-79
2022/08/22 15:02:29;;;;;;;0.05;0.05;;;;;;;33.49;29.30;101473.09;5046588;28;20116;-81
2022/08/22 15:05:00;;;;;;;0.05;0.05;;;;;;;33.59;30.50;101469.34;5047559;28;20133;-79
2022/08/22 15:07:31;;;;;;;0.00;0.00;;;;;;;33.76;30.01;101467.50;5045678;27;20115;-80
2022/08/22 15:10:00;;;;;;;;;;;;;;;33.92;29.64;101474.94;5047165;27;20025;-80
2022/08/22 15:12:32;;;;;;;0.00;0.00;;;;;;;33.63;28.77;101473.47;5043593;28;20382;-79
2022/08/22 15:15:02;;;;;;;0.20;0.20;;;;;;;33.40;30.34;101465.88;5046190;28;20034;-81
2022/08/22 15:22:51;;;;;;;0.00;0.00;;;;;;;33.18;30.09;101459.91;5091583;27;20192;-80
2022/08/22 15:25:24;;;;;;;0.10;0.10;;;;;;;33.34;30.42;101456.41;5079187;28;20075;-80
2022/08/22 15:35:53;;;;;;;0.10;0.10;;;;;;;33.89;27.35;101451.41;5133550;27;20503;-80
2022/08/22 15:41:40;;;;;;;0.10;0.10;;;;;;;34.17;28.99;101451.94;5044751;27;20409;-79
2022/08/22 15:46:55;;;;;;;0.20;0.20;;;;;;;34.10;29.08;101439.06;5063563;28;20419;-79
2022/08/22 15:49:26;;;;;;;0.68;0.57;;;;;;;33.96;27.72;101437.81;5062569;28;20052;-79
2022/08/22 15:57:37;;;;;;;11.60;1.30;;;;;;;34.02;28.90;101431.63;5107390;27;20404;-79
2022/08/22 16:00:25;;;;;;;0.10;0.10;;;;;;;34.15;29.25;101420.16;5102158;28;20054;-79
2022/08/22 16:02:59;;;;;;;0.20;0.20;;;;;;;34.17;29.35;101420.81;5103445;28;20039;-79
2022/08/22 16:05:39;;;;;;;0.10;0.10;;;;;;;34.32;28.64;101418.22;5103539;28;20028;-77
2022/08/22 16:08:13;;;;;;;0.45;0.45;;;;;;;34.27;30.19;101420.63;5096625;28;20066;-79
2022/08/22 16:10:46;;;;;;;5.28;0.38;;;;;;;34.23;29.45;101414.63;5097268;28;20055;-79
2022/08/22 16:26:43;;;;;;;0.00;0.00;;;;;;;33.95;29.69;101404.00;5138792;27;20444;-79
2022/08/22 16:34:37;;;;;;;2.20;0.87;;;;;;;34.11;28.94;101397.63;5101656;27;1168879;-86
2022/08/22 16:39:49;;;;;;;0.10;0.10;;;;;;;34.18;29.44;101400.53;5062141;28;20435;-79
2022/08/22 16:47:52;;;;;;;0.20;0.20;;;;;;;34.22;30.21;101401.94;5104371;27;20404;-80
2022/08/22 16:53:06;;;;;;;0.98;0.63;;;;;;;34.28;28.18;101395.72;5121363;27;20575;-78
2022/08/22 17:07:01;;;;;;;0.47;0.20;;;;;;;34.27;30.37;101394.00;5108866;27;20407;-79
2022/08/22 17:09:58;;;;;;;0.77;0.32;;;;;;;34.30;31.16;101392.81;5100075;28;20027;-79
2022/08/22 17:21:20;;;;;;;0.55;0.55;;;;;;;34.18;30.10;101395.03;5068381;27;1876365;-85
2022/08/22 17:23:58;;;;;;;0.00;0.00;;;;;;;34.13;30.95;101398.34;5087853;28;20476;-85
2022/08/22 17:36:00;;;;;;;0.10;0.10;;;;;;;33.89;31.28;101401.09;5048797;28;20968;-87
2022/08/22 17:47:06;;;;;;;0.00;0.00;;;;;;;33.08;32.47;101414.41;5120301;27;20376;-78
2022/08/22 17:49:50;;;;;;;0.00;0.00;;;;;;;32.84;33.45;101419.59;5106231;28;20463;-79
2022/08/22 17:52:43;;;;;;;0.00;0.00;;;;;;;32.48;33.77;101416.97;5081493;28;20326;-79
2022/08/22 17:55:26;;;;;;;0.00;0.00;;;;;;;31.99;33.74;101411.06;5082395;28;20029;-78
2022/08/22 17:58:01;;;;;;;0.00;0.00;;;;;;;31.49;34.68;101418.78;5099934;28;20024;-79
2022/08/22 18:00:36;;;;;;;0.00;0.00;;;;;;;30.99;36.27;101422.75;5099049;28;20107;-79
2022/08/22 18:03:14;;;;;;;0.00;0.00;;;;;;;30.62;36.30;101427.22;5085673;28;20025;-79
2022/08/22 18:05:50;;;;;;;0.45;0.45;;;;;;;30.24;37.10;101428.13;5065901;28;20017;-79
2022/08/22 18:08:30;;;;;;;0.00;0.00;;;;;;;29.90;37.56;101426.72;5080023;28;20036;-79
2022/08/22 18:16:26;;;;;;;0.00;0.00;;;;;;;28.98;39.13;101428.59;5123912;27;1238588;-79
2022/08/22 18:24:53;;;;;;;0.10;0.10;;;;;;;28.33;40.32;101436.97;5118596;27;1217117;-79
2022/08/22 18:33:06;;;;;;;0.10;0.10;;;;;;;27.61;41.38;101449.34;5078018;28;20385;-79
2022/08/22 18:43:44;;;;;;;0.03;0.03;;;;;;;26.89;42.48;101448.78;5107416;27;20400;-79